Time;durP1;ratioP1;P1;durP2;ratioP2;P2;SDS_P1;SDS_P2;PMS_P1;PMS_P2;Temp;Humidity;BMP_temperature;BMP_pressure;BME280_temperature;BME280_humidity;BME280_pressure;Samples;Min_cycle;Max_cycle;Signal;HPM_P1;HPM_P2
2024/01/04 00:00:32;;;;;;;3.45;0.90;;;;;;;;;;5126392;28;20418;-80
2024/01/04 00:02:58;;;;;;;2.78;0.90;;;;;;;;;;5126046;28;20380;-81
2024/01/04 00:05:24;;;;;;;2.65;0.88;;;;;;;;;;5125374;28;20756;-81
2024/01/04 00:07:50;;;;;;;2.05;0.65;;;;;;;;;;5126139;28;20876;-80
2024/01/04 00:10:17;;;;;;;3.13;0.73;;;;;;;;;;5124423;28;20372;-80
2024/01/04 00:12:44;;;;;;;3.38;0.60;;;;;;;;;;5124788;28;20369;-80
2024/01/04 00:15:10;;;;;;;4.85;0.70;;;;;;;;;;5124085;28;20425;-81
2024/01/04 00:17:36;;;;;;;3.13;0.70;;;;;;;;;;5124864;28;20384;-82
2024/01/04 00:20:03;;;;;;;2.85;0.80;;;;;;;;;;5105479;28;20396;-80
2024/01/04 00:22:29;;;;;;;1.92;0.88;;;;;;;;;;5122039;28;20408;-80
2024/01/04 00:24:55;;;;;;;2.90;0.80;;;;;;;;;;5105473;28;20765;-79
2024/01/04 00:27:21;;;;;;;4.00;0.82;;;;;;;;;;5127102;28;20444;-80
2024/01/04 00:29:47;;;;;;;2.97;0.80;;;;;;;;;;5125452;28;20857;-80
2024/01/04 00:32:13;;;;;;;2.92;0.77;;;;;;;;;;5107790;28;20388;-80
2024/01/04 00:34:39;;;;;;;3.40;0.90;;;;;;;;;;5106983;28;20409;-80
2024/01/04 00:37:05;;;;;;;3.08;0.90;;;;;;;;;;5104636;28;20392;-80
2024/01/04 00:39:31;;;;;;;3.58;0.90;;;;;;;;;;5103219;28;20780;-79
2024/01/04 00:41:58;;;;;;;3.45;0.82;;;;;;;;;;5106408;28;20384;-82
2024/01/04 00:44:24;;;;;;;3.10;0.90;;;;;;;;;;5124234;28;20472;-80
2024/01/04 00:46:51;;;;;;;3.55;0.70;;;;;;;;;;5125545;28;20422;-80
2024/01/04 00:49:19;;;;;;;3.25;0.80;;;;;;;;;;5106358;28;20388;-80
2024/01/04 00:51:45;;;;;;;3.75;0.90;;;;;;;;;;5106912;28;20369;-80
2024/01/04 00:54:12;;;;;;;3.85;0.90;;;;;;;;;;5126141;28;20437;-80
2024/01/04 00:56:38;;;;;;;2.55;1.02;;;;;;;;;;5106558;28;20395;-81
2024/01/04 00:59:04;;;;;;;2.97;0.93;;;;;;;;;;5125595;28;20459;-81
2024/01/04 01:01:33;;;;;;;4.75;0.98;;;;;;;;;;5126363;28;20372;-81
2024/01/04 01:04:02;;;;;;;3.03;0.70;;;;;;;;;;5109795;28;20385;-81
2024/01/04 01:06:28;;;;;;;3.30;0.83;;;;;;;;;;5123499;28;20404;-80
2024/01/04 01:08:54;;;;;;;2.72;0.70;;;;;;;;;;5125445;28;20384;-80
2024/01/04 01:11:20;;;;;;;2.65;0.80;;;;;;;;;;5123727;28;20372;-79
2024/01/04 01:13:47;;;;;;;2.15;0.77;;;;;;;;;;5123661;28;20379;-79
2024/01/04 01:16:13;;;;;;;2.97;0.70;;;;;;;;;;5123534;28;20411;-80
2024/01/04 01:18:39;;;;;;;2.27;0.53;;;;;;;;;;5122528;28;20507;-80
2024/01/04 01:21:05;;;;;;;3.75;0.82;;;;;;;;;;5124579;28;20376;-81
2024/01/04 01:23:31;;;;;;;3.37;0.80;;;;;;;;;;5125515;28;20952;-80
2024/01/04 01:25:57;;;;;;;4.00;1.10;;;;;;;;;;5106904;28;20404;-80
2024/01/04 01:28:23;;;;;;;4.47;1.10;;;;;;;;;;5106412;28;20373;-80
2024/01/04 01:30:50;;;;;;;3.78;0.90;;;;;;;;;;5107316;28;20387;-81
2024/01/04 01:33:16;;;;;;;3.38;0.63;;;;;;;;;;5124639;28;20372;-80
2024/01/04 01:35:42;;;;;;;2.88;0.88;;;;;;;;;;5125814;28;20444;-81
2024/01/04 01:38:08;;;;;;;3.05;0.93;;;;;;;;;;5124956;28;20380;-81
2024/01/04 01:40:34;;;;;;;5.18;0.88;;;;;;;;;;5122663;28;20449;-81
2024/01/04 01:43:00;;;;;;;4.35;1.20;;;;;;;;;;5124791;28;20409;-81
2024/01/04 01:45:26;;;;;;;3.40;0.82;;;;;;;;;;5107081;28;20376;-80
2024/01/04 01:47:53;;;;;;;3.53;0.88;;;;;;;;;;5125976;28;20377;-80
2024/01/04 01:50:20;;;;;;;3.70;0.85;;;;;;;;;;5125730;28;20376;-81
2024/01/04 01:52:46;;;;;;;3.60;0.90;;;;;;;;;;5125773;28;20372;-81
2024/01/04 01:55:17;;;;;;;4.20;1.20;;;;;;;;;;5126157;28;20387;-80
2024/01/04 01:57:43;;;;;;;4.60;1.05;;;;;;;;;;5125830;28;20830;-81
2024/01/04 02:00:10;;;;;;;5.15;0.80;;;;;;;;;;5126234;28;20389;-80
2024/01/04 02:02:37;;;;;;;2.78;0.88;;;;;;;;;;5091200;28;20388;-81
2024/01/04 02:05:03;;;;;;;4.50;1.00;;;;;;;;;;5107354;28;20395;-81
2024/01/04 02:07:29;;;;;;;2.60;0.70;;;;;;;;;;5108331;28;20445;-81
2024/01/04 02:09:55;;;;;;;4.00;0.98;;;;;;;;;;5108309;28;20388;-80
2024/01/04 02:12:21;;;;;;;3.30;0.80;;;;;;;;;;5125963;28;20384;-81
2024/01/04 02:14:52;;;;;;;2.90;0.87;;;;;;;;;;5125096;28;20406;-80
2024/01/04 02:17:19;;;;;;;4.00;0.98;;;;;;;;;;5125403;28;20471;-81
2024/01/04 02:19:45;;;;;;;2.47;0.70;;;;;;;;;;5108163;28;20448;-80
2024/01/04 02:22:11;;;;;;;2.50;0.63;;;;;;;;;;5125349;28;20507;-81
2024/01/04 02:24:39;;;;;;;3.50;0.90;;;;;;;;;;5106080;28;20533;-79
2024/01/04 02:27:05;;;;;;;3.47;0.90;;;;;;;;;;5125579;28;20400;-80
2024/01/04 02:29:31;;;;;;;2.40;1.00;;;;;;;;;;5125489;28;20391;-80
2024/01/04 02:31:57;;;;;;;4.22;0.98;;;;;;;;;;5108432;28;20388;-80
2024/01/04 02:34:23;;;;;;;3.70;0.75;;;;;;;;;;5125196;28;20759;-81
2024/01/04 02:36:49;;;;;;;3.07;0.70;;;;;;;;;;5125710;28;20380;-80
2024/01/04 02:39:15;;;;;;;2.53;0.60;;;;;;;;;;5107976;28;20416;-81
2024/01/04 02:41:41;;;;;;;4.00;0.77;;;;;;;;;;5107858;28;20423;-81
2024/01/04 02:44:07;;;;;;;3.45;0.60;;;;;;;;;;5126001;28;20381;-80
2024/01/04 02:46:33;;;;;;;3.47;0.80;;;;;;;;;;5125659;28;20428;-80
2024/01/04 02:48:59;;;;;;;2.28;0.63;;;;;;;;;;5124870;28;20383;-81
2024/01/04 02:51:25;;;;;;;2.33;0.60;;;;;;;;;;5124812;28;20433;-81
2024/01/04 02:53:51;;;;;;;2.47;0.70;;;;;;;;;;5124656;28;20425;-80
2024/01/04 02:56:17;;;;;;;2.20;0.57;;;;;;;;;;5125621;28;20823;-80
2024/01/04 02:58:46;;;;;;;4.05;0.90;;;;;;;;;;5107477;28;20384;-81
2024/01/04 03:01:21;;;;;;;3.80;0.90;;;;;;;;;;5099351;28;20476;-81
2024/01/04 03:03:55;;;;;;;3.10;0.60;;;;;;;;;;5122818;28;20896;-81
2024/01/04 03:06:30;;;;;;;2.53;0.80;;;;;;;;;;5124034;28;20396;-81
2024/01/04 03:08:57;;;;;;;3.97;0.83;;;;;;;;;;5123660;28;20364;-80
2024/01/04 03:11:23;;;;;;;3.40;0.70;;;;;;;;;;5123807;28;20919;-80
2024/01/04 03:13:49;;;;;;;3.70;0.85;;;;;;;;;;5123673;28;20372;-80
2024/01/04 03:16:18;;;;;;;3.03;0.85;;;;;;;;;;5106497;28;20376;-79
2024/01/04 03:18:44;;;;;;;2.40;0.60;;;;;;;;;;5126647;28;20380;-79
2024/01/04 03:21:10;;;;;;;3.33;0.65;;;;;;;;;;5110334;28;20380;-81
2024/01/04 03:23:36;;;;;;;4.43;1.00;;;;;;;;;;5128279;28;20889;-79
2024/01/04 03:26:02;;;;;;;4.10;0.95;;;;;;;;;;5129322;28;20795;-80
2024/01/04 03:28:28;;;;;;;2.90;0.80;;;;;;;;;;5127425;28;20380;-80
2024/01/04 03:30:54;;;;;;;4.38;0.82;;;;;;;;;;5110956;28;20376;-79
2024/01/04 03:33:20;;;;;;;2.15;0.77;;;;;;;;;;5128677;28;20372;-79
2024/01/04 03:35:46;;;;;;;3.77;0.90;;;;;;;;;;5109932;28;20457;-80
2024/01/04 03:38:12;;;;;;;2.83;1.00;;;;;;;;;;5127205;28;20391;-79
2024/01/04 03:40:38;;;;;;;4.32;0.88;;;;;;;;;;5127042;28;20433;-80
2024/01/04 03:43:04;;;;;;;5.90;1.00;;;;;;;;;;5107499;28;20391;-80
2024/01/04 03:45:31;;;;;;;4.22;0.80;;;;;;;;;;5103639;28;20383;-79
2024/01/04 03:47:57;;;;;;;5.75;1.05;;;;;;;;;;5108630;28;20441;-79
2024/01/04 03:50:23;;;;;;;3.72;1.20;;;;;;;;;;5107912;28;20803;-80
2024/01/04 03:52:49;;;;;;;3.80;0.90;;;;;;;;;;5097707;27;20400;-79
2024/01/04 03:55:15;;;;;;;4.47;0.93;;;;;;;;;;5107767;28;20445;-79
2024/01/04 03:57:45;;;;;;;4.43;0.88;;;;;;;;;;5124471;28;20399;-80
2024/01/04 04:00:11;;;;;;;5.70;1.20;;;;;;;;;;5116249;28;20395;-79
2024/01/04 04:02:38;;;;;;;4.80;1.05;;;;;;;;;;5111055;28;20382;-79
2024/01/04 04:05:04;;;;;;;3.25;0.80;;;;;;;;;;5110692;28;20406;-79
2024/01/04 04:07:30;;;;;;;2.67;0.63;;;;;;;;;;5137686;27;20921;-81
2024/01/04 04:09:57;;;;;;;2.38;0.70;;;;;;;;;;5121566;28;20372;-79
2024/01/04 04:12:23;;;;;;;2.28;0.82;;;;;;;;;;5134868;27;20431;-79
2024/01/04 04:14:49;;;;;;;4.53;0.98;;;;;;;;;;5122409;28;20384;-79
2024/01/04 04:17:20;;;;;;;3.40;0.77;;;;;;;;;;5130275;27;20378;-81
2024/01/04 04:19:46;;;;;;;2.13;0.60;;;;;;;;;;5120269;28;20440;-79
2024/01/04 04:22:12;;;;;;;3.03;0.90;;;;;;;;;;5115847;28;20487;-80
2024/01/04 04:24:38;;;;;;;2.22;0.80;;;;;;;;;;5134751;27;20390;-81
2024/01/04 04:27:04;;;;;;;2.92;0.80;;;;;;;;;;5113240;28;20397;-79
2024/01/04 04:29:30;;;;;;;3.38;0.70;;;;;;;;;;5120517;28;20507;-81
2024/01/04 04:31:56;;;;;;;2.67;0.70;;;;;;;;;;5128288;27;20438;-81
2024/01/04 04:34:22;;;;;;;2.50;0.77;;;;;;;;;;5128764;27;20404;-80
2024/01/04 04:36:49;;;;;;;3.47;1.13;;;;;;;;;;5127508;28;20388;-81
2024/01/04 04:39:15;;;;;;;3.45;1.00;;;;;;;;;;5128030;28;20377;-80
2024/01/04 04:41:41;;;;;;;3.22;1.08;;;;;;;;;;5127694;28;20473;-79
2024/01/04 04:44:07;;;;;;;3.05;1.00;;;;;;;;;;5126946;28;20893;-80
2024/01/04 04:46:33;;;;;;;4.10;1.05;;;;;;;;;;5127845;28;20923;-79
2024/01/04 04:48:59;;;;;;;4.47;0.93;;;;;;;;;;5127739;28;20419;-79
2024/01/04 04:51:25;;;;;;;3.75;0.90;;;;;;;;;;5127443;28;20412;-79
2024/01/04 04:53:52;;;;;;;2.30;0.60;;;;;;;;;;5126794;28;20380;-79
2024/01/04 04:56:18;;;;;;;4.60;0.90;;;;;;;;;;5127355;28;20384;-80
2024/01/04 04:58:44;;;;;;;3.28;0.90;;;;;;;;;;5128216;28;20379;-79
2024/01/04 05:01:10;;;;;;;4.07;0.90;;;;;;;;;;5127300;28;20461;-80
2024/01/04 05:03:36;;;;;;;3.92;0.90;;;;;;;;;;5126695;28;20389;-79
2024/01/04 05:06:03;;;;;;;4.13;0.50;;;;;;;;;;5127808;28;20524;-80
2024/01/04 05:08:29;;;;;;;5.80;1.13;;;;;;;;;;5126411;28;20376;-79
2024/01/04 05:10:55;;;;;;;6.28;1.00;;;;;;;;;;5127638;28;20384;-80
2024/01/04 05:13:21;;;;;;;3.50;0.90;;;;;;;;;;5127350;28;20380;-79
2024/01/04 05:15:47;;;;;;;3.88;0.85;;;;;;;;;;5125372;28;20388;-78
2024/01/04 05:18:13;;;;;;;2.85;0.90;;;;;;;;;;5126005;28;20386;-79
2024/01/04 05:20:40;;;;;;;4.72;0.98;;;;;;;;;;5126234;28;20385;-79
2024/01/04 05:23:07;;;;;;;3.30;0.80;;;;;;;;;;5125735;28;20511;-79
2024/01/04 05:25:33;;;;;;;3.50;0.88;;;;;;;;;;5125087;28;20376;-78
2024/01/04 05:27:59;;;;;;;3.78;0.80;;;;;;;;;;5125257;28;20381;-79
2024/01/04 05:30:25;;;;;;;4.07;0.80;;;;;;;;;;5123311;28;20450;-79
2024/01/04 05:32:51;;;;;;;4.22;1.10;;;;;;;;;;5124317;28;20411;-79
2024/01/04 05:35:17;;;;;;;3.78;0.85;;;;;;;;;;5126435;28;20475;-79
2024/01/04 05:37:43;;;;;;;3.03;0.95;;;;;;;;;;5125932;28;20381;-79
2024/01/04 05:40:09;;;;;;;2.35;0.73;;;;;;;;;;5124406;28;20376;-80
2024/01/04 05:42:35;;;;;;;2.85;0.88;;;;;;;;;;5122011;28;20381;-80
2024/01/04 05:45:01;;;;;;;4.07;0.80;;;;;;;;;;5109805;28;20407;-81
2024/01/04 05:47:27;;;;;;;3.85;0.73;;;;;;;;;;5108956;28;20400;-79
2024/01/04 05:49:53;;;;;;;3.03;1.00;;;;;;;;;;5108888;28;20398;-80
2024/01/04 05:52:19;;;;;;;3.47;0.90;;;;;;;;;;5109472;28;20420;-80
2024/01/04 05:54:45;;;;;;;3.15;0.73;;;;;;;;;;5108977;28;20380;-80
2024/01/04 05:57:11;;;;;;;3.83;0.80;;;;;;;;;;5111080;28;20897;-81
2024/01/04 05:59:37;;;;;;;3.50;0.77;;;;;;;;;;5109283;28;20435;-80
2024/01/04 06:02:03;;;;;;;3.72;1.20;;;;;;;;;;5125830;28;20400;-80
2024/01/04 06:04:29;;;;;;;3.63;0.80;;;;;;;;;;5123896;28;20377;-80
2024/01/04 06:06:55;;;;;;;4.50;0.97;;;;;;;;;;5105975;28;20411;-79
2024/01/04 06:09:21;;;;;;;4.13;0.82;;;;;;;;;;5124769;28;20377;-79
2024/01/04 06:11:48;;;;;;;4.70;0.85;;;;;;;;;;5124325;28;20435;-79
2024/01/04 06:14:14;;;;;;;4.78;1.23;;;;;;;;;;5125034;28;20463;-79
2024/01/04 06:16:40;;;;;;;3.60;0.90;;;;;;;;;;5106408;28;20393;-79
2024/01/04 06:19:06;;;;;;;4.40;1.02;;;;;;;;;;5124939;28;20384;-81
2024/01/04 06:21:32;;;;;;;4.93;0.93;;;;;;;;;;5106253;28;20404;-79
2024/01/04 06:23:58;;;;;;;6.00;0.90;;;;;;;;;;5124141;28;20392;-80
2024/01/04 06:26:24;;;;;;;4.13;1.30;;;;;;;;;;5107116;28;20396;-81
2024/01/04 06:28:52;;;;;;;4.93;1.15;;;;;;;;;;5106667;28;20413;-78
2024/01/04 06:31:18;;;;;;;2.90;1.25;;;;;;;;;;5106608;28;20463;-81
2024/01/04 06:33:45;;;;;;;4.43;1.23;;;;;;;;;;5124707;28;20440;-80
2024/01/04 06:36:11;;;;;;;4.90;1.20;;;;;;;;;;5125337;28;20373;-81
2024/01/04 06:38:37;;;;;;;5.40;1.17;;;;;;;;;;5107137;28;20384;-83
2024/01/04 06:41:03;;;;;;;5.55;1.42;;;;;;;;;;5125057;28;20375;-80
2024/01/04 06:43:30;;;;;;;4.20;0.90;;;;;;;;;;5124852;28;20373;-81
2024/01/04 06:45:56;;;;;;;4.45;1.00;;;;;;;;;;5107276;28;20448;-81
2024/01/04 06:48:22;;;;;;;5.30;1.00;;;;;;;;;;5125330;28;20399;-81
2024/01/04 06:50:49;;;;;;;4.23;1.20;;;;;;;;;;5107159;28;20381;-80
2024/01/04 06:53:15;;;;;;;4.53;1.13;;;;;;;;;;5106907;28;20376;-81
2024/01/04 06:55:41;;;;;;;3.77;1.10;;;;;;;;;;5129251;27;20390;-82
2024/01/04 06:58:09;;;;;;;3.50;0.98;;;;;;;;;;5122562;28;20397;-81
2024/01/04 07:00:35;;;;;;;4.90;1.30;;;;;;;;;;5098083;28;20382;-78
2024/01/04 07:03:01;;;;;;;4.05;0.80;;;;;;;;;;5103443;28;20457;-80
2024/01/04 07:05:27;;;;;;;2.53;0.90;;;;;;;;;;5103982;28;20864;-81
2024/01/04 07:07:53;;;;;;;5.33;1.10;;;;;;;;;;5086133;28;20414;-80
2024/01/04 07:10:19;;;;;;;4.97;1.23;;;;;;;;;;5086806;28;20400;-80
2024/01/04 07:12:47;;;;;;;4.95;1.42;;;;;;;;;;5087453;28;20382;-80
2024/01/04 07:15:13;;;;;;;5.90;1.20;;;;;;;;;;5105278;28;20381;-80
2024/01/04 07:17:39;;;;;;;5.38;1.40;;;;;;;;;;5105124;28;20382;-82
2024/01/04 07:20:06;;;;;;;3.92;1.20;;;;;;;;;;5087360;28;20842;-80
2024/01/04 07:22:32;;;;;;;7.63;1.60;;;;;;;;;;5099294;28;20417;-80
2024/01/04 07:24:59;;;;;;;4.20;1.33;;;;;;;;;;5076835;28;20381;-80
2024/01/04 07:27:27;;;;;;;4.40;1.27;;;;;;;;;;5095532;28;20501;-79
2024/01/04 07:29:54;;;;;;;5.75;1.48;;;;;;;;;;5097779;28;20417;-80
2024/01/04 07:32:20;;;;;;;6.23;1.40;;;;;;;;;;5096894;28;20828;-80
2024/01/04 07:34:46;;;;;;;6.32;1.45;;;;;;;;;;5106618;28;20440;-82
2024/01/04 07:37:12;;;;;;;6.28;1.80;;;;;;;;;;5117827;28;20423;-80
2024/01/04 07:39:39;;;;;;;6.95;2.25;;;;;;;;;;5115606;28;20372;-81
2024/01/04 07:42:05;;;;;;;5.65;1.80;;;;;;;;;;5118917;28;20372;-82
2024/01/04 07:44:31;;;;;;;6.32;1.67;;;;;;;;;;5117176;28;20826;-80
2024/01/04 07:46:57;;;;;;;5.40;1.58;;;;;;;;;;5099572;28;20447;-78
2024/01/04 07:49:24;;;;;;;3.95;1.00;;;;;;;;;;5117609;28;20405;-81
2024/01/04 07:51:51;;;;;;;5.65;1.38;;;;;;;;;;5116606;28;20369;-81
2024/01/04 07:54:17;;;;;;;6.22;1.92;;;;;;;;;;5118803;28;20559;-81
2024/01/04 07:56:43;;;;;;;8.40;2.85;;;;;;;;;;5116120;28;20396;-81
2024/01/04 07:59:09;;;;;;;8.05;2.40;;;;;;;;;;5115669;28;20373;-81
2024/01/04 08:01:35;;;;;;;6.28;2.28;;;;;;;;;;5118407;28;20388;-83
2024/01/04 08:04:01;;;;;;;6.53;2.03;;;;;;;;;;5122211;28;20381;-82
2024/01/04 08:06:27;;;;;;;4.72;1.65;;;;;;;;;;5122254;28;20440;-82
2024/01/04 08:08:53;;;;;;;5.95;1.75;;;;;;;;;;5124075;28;20841;-81
2024/01/04 08:11:19;;;;;;;7.07;1.70;;;;;;;;;;5106788;28;20365;-83
2024/01/04 08:13:45;;;;;;;3.78;1.45;;;;;;;;;;5125624;28;20396;-82
2024/01/04 08:16:11;;;;;;;6.05;1.50;;;;;;;;;;5126219;28;20384;-83
2024/01/04 08:18:38;;;;;;;5.47;1.50;;;;;;;;;;5124853;28;20406;-81
2024/01/04 08:21:05;;;;;;;4.65;1.20;;;;;;;;;;5125911;28;20379;-82
2024/01/04 08:23:31;;;;;;;6.80;1.40;;;;;;;;;;5125423;28;20439;-83
2024/01/04 08:25:57;;;;;;;8.43;2.40;;;;;;;;;;5125546;28;20404;-82
2024/01/04 08:28:23;;;;;;;5.25;1.90;;;;;;;;;;5125157;28;20372;-81
2024/01/04 08:30:49;;;;;;;6.88;2.33;;;;;;;;;;5108648;28;20372;-82
2024/01/04 08:33:15;;;;;;;4.75;1.73;;;;;;;;;;5122919;28;20372;-81
2024/01/04 08:35:41;;;;;;;4.57;1.70;;;;;;;;;;5119650;28;20736;-80
2024/01/04 08:38:07;;;;;;;7.38;1.70;;;;;;;;;;5118449;28;20412;-81
2024/01/04 08:40:38;;;;;;;4.45;1.35;;;;;;;;;;5118640;28;20379;-81
2024/01/04 08:43:06;;;;;;;5.32;1.00;;;;;;;;;;5118933;28;20391;-81
2024/01/04 08:45:32;;;;;;;5.35;1.27;;;;;;;;;;5100631;28;20376;-81
2024/01/04 08:47:58;;;;;;;4.80;1.50;;;;;;;;;;5118567;28;20425;-81
2024/01/04 08:50:24;;;;;;;7.75;1.73;;;;;;;;;;5123910;28;20380;-82
2024/01/04 08:52:50;;;;;;;5.10;1.60;;;;;;;;;;5124610;28;20460;-81
2024/01/04 08:55:18;;;;;;;4.00;1.13;;;;;;;;;;5121716;28;20541;-82
2024/01/04 08:57:44;;;;;;;5.57;1.30;;;;;;;;;;5121198;28;20384;-83
2024/01/04 09:00:10;;;;;;;3.88;0.88;;;;;;;;;;5122641;28;20408;-82
2024/01/04 09:02:37;;;;;;;3.78;1.13;;;;;;;;;;5112355;28;20424;-81
2024/01/04 09:05:03;;;;;;;3.15;0.90;;;;;;;;;;5103929;28;20382;-82
2024/01/04 09:07:30;;;;;;;3.58;1.10;;;;;;;;;;5094155;28;20398;-81
2024/01/04 09:09:56;;;;;;;4.10;0.93;;;;;;;;;;5094895;28;20378;-81
2024/01/04 09:12:22;;;;;;;3.38;1.10;;;;;;;;;;5094233;28;20371;-80
2024/01/04 09:14:48;;;;;;;3.85;1.00;;;;;;;;;;5093432;28;20879;-81
2024/01/04 09:17:14;;;;;;;3.70;1.10;;;;;;;;;;5094195;28;20410;-81
2024/01/04 09:19:41;;;;;;;3.35;1.20;;;;;;;;;;5094533;28;20751;-80
2024/01/04 09:22:07;;;;;;;3.15;1.00;;;;;;;;;;5095140;28;20414;-81
2024/01/04 09:24:34;;;;;;;3.70;1.05;;;;;;;;;;5076544;28;20394;-81
2024/01/04 09:27:00;;;;;;;2.72;0.95;;;;;;;;;;5076452;28;20406;-81
2024/01/04 09:29:26;;;;;;;5.55;1.15;;;;;;;;;;5095000;28;20374;-80
2024/01/04 09:31:52;;;;;;;2.00;0.60;;;;;;;;;;5092266;28;20456;-81
2024/01/04 09:34:19;;;;;;;2.77;0.83;;;;;;;;;;5114874;28;20837;-81
2024/01/04 09:36:45;;;;;;;2.63;0.80;;;;;;;;;;5114170;28;20387;-80
2024/01/04 09:39:17;;;;;;;6.10;1.13;;;;;;;;;;5114536;28;20380;-80
2024/01/04 09:41:47;;;;;;;4.55;1.10;;;;;;;;;;5115103;28;20459;-80
2024/01/04 09:44:13;;;;;;;2.97;0.90;;;;;;;;;;5114662;28;20396;-81
2024/01/04 09:46:40;;;;;;;4.13;1.20;;;;;;;;;;5096636;28;20455;-80
2024/01/04 09:49:06;;;;;;;4.50;1.00;;;;;;;;;;5115273;28;20460;-80
2024/01/04 09:51:34;;;;;;;3.58;1.20;;;;;;;;;;5114489;28;20391;-80
2024/01/04 09:54:00;;;;;;;3.15;1.48;;;;;;;;;;5114221;28;20402;-80
2024/01/04 09:56:27;;;;;;;4.43;1.40;;;;;;;;;;5114119;28;20519;-80
2024/01/04 09:58:53;;;;;;;3.78;1.38;;;;;;;;;;5095849;28;20423;-81
2024/01/04 10:01:23;;;;;;;2.60;1.10;;;;;;;;;;5114582;28;20461;-81
2024/01/04 10:03:49;;;;;;;4.90;1.17;;;;;;;;;;5115873;28;20865;-80
2024/01/04 10:06:23;;;;;;;3.03;0.93;;;;;;;;;;5116690;28;20404;-80
2024/01/04 10:08:54;;;;;;;2.85;0.80;;;;;;;;;;5115178;28;20719;-80
2024/01/04 10:11:24;;;;;;;3.63;1.05;;;;;;;;;;5115455;28;20368;-80
2024/01/04 10:13:50;;;;;;;4.20;1.25;;;;;;;;;;5117454;28;20410;-81
2024/01/04 10:16:17;;;;;;;3.80;1.20;;;;;;;;;;5118925;28;20375;-80
2024/01/04 10:18:43;;;;;;;3.47;1.10;;;;;;;;;;5119082;28;20400;-80
2024/01/04 10:21:10;;;;;;;3.28;1.20;;;;;;;;;;5098155;28;20385;-81
2024/01/04 10:23:36;;;;;;;3.53;0.83;;;;;;;;;;5114511;28;20408;-81
2024/01/04 10:26:09;;;;;;;3.33;1.20;;;;;;;;;;5114693;28;20396;-81
2024/01/04 10:28:38;;;;;;;3.45;1.20;;;;;;;;;;5115228;28;20837;-81
2024/01/04 10:31:04;;;;;;;2.13;0.80;;;;;;;;;;5113636;28;20786;-81
2024/01/04 10:33:30;;;;;;;2.30;0.70;;;;;;;;;;5113460;28;20376;-81
2024/01/04 10:35:56;;;;;;;3.20;1.20;;;;;;;;;;5095348;28;20403;-82
2024/01/04 10:38:23;;;;;;;2.92;1.20;;;;;;;;;;5113480;28;20372;-81
2024/01/04 10:41:01;;;;;;;2.67;0.97;;;;;;;;;;5113453;28;20376;-81
2024/01/04 10:43:28;;;;;;;2.83;1.00;;;;;;;;;;5113805;28;20380;-82
2024/01/04 10:46:02;;;;;;;2.20;0.80;;;;;;;;;;5113511;28;20493;-81
2024/01/04 10:48:28;;;;;;;2.07;0.90;;;;;;;;;;5113577;28;20448;-81
2024/01/04 10:50:57;;;;;;;1.83;0.60;;;;;;;;;;5113876;28;20365;-81
2024/01/04 10:53:22;;;;;;;2.30;1.20;;;;;;;;;;5113352;28;20893;-81
2024/01/04 10:55:49;;;;;;;5.83;3.43;;;;;;;;;;5113318;28;20487;-81
2024/01/04 10:58:16;;;;;;;4.33;2.90;;;;;;;;;;5117050;28;21073;-81
2024/01/04 11:00:42;;;;;;;2.28;1.17;;;;;;;;;;5097647;28;20904;-81
2024/01/04 11:03:09;;;;;;;2.85;1.30;;;;;;;;;;5115443;28;20372;-81
2024/01/04 11:05:36;;;;;;;1.90;0.80;;;;;;;;;;5116426;28;20730;-81
2024/01/04 11:08:03;;;;;;;7.80;1.10;;;;;;;;;;5115471;28;20394;-81
2024/01/04 11:10:29;;;;;;;1.27;0.60;;;;;;;;;;5113227;28;20395;-81
2024/01/04 11:12:56;;;;;;;1.58;0.60;;;;;;;;;;5115530;28;20465;-82
2024/01/04 11:15:23;;;;;;;1.17;0.63;;;;;;;;;;5116310;28;20407;-81
2024/01/04 11:18:12;;;;;;;1.00;0.50;;;;;;;;;;5087515;28;20426;-81
2024/01/04 11:20:50;;;;;;;2.63;0.50;;;;;;;;;;5110706;28;20380;-82
2024/01/04 11:23:25;;;;;;;2.80;0.70;;;;;;;;;;5097294;28;20412;-83
2024/01/04 11:25:54;;;;;;;1.40;0.50;;;;;;;;;;5115637;28;20396;-82
2024/01/04 11:28:20;;;;;;;1.52;0.77;;;;;;;;;;5097278;28;20379;-82
2024/01/04 11:30:51;;;;;;;1.48;0.63;;;;;;;;;;5115866;28;20368;-81
2024/01/04 11:33:19;;;;;;;2.65;0.82;;;;;;;;;;5115151;28;20834;-81
2024/01/04 11:35:49;;;;;;;1.90;0.80;;;;;;;;;;5116483;28;20463;-84
2024/01/04 11:38:22;;;;;;;1.50;0.60;;;;;;;;;;5096975;28;20463;-84
2024/01/04 11:40:49;;;;;;;3.30;0.88;;;;;;;;;;5109223;28;20847;-85
2024/01/04 11:43:16;;;;;;;1.45;0.60;;;;;;;;;;5099375;28;20374;-84
2024/01/04 11:45:44;;;;;;;2.25;0.90;;;;;;;;;;5082460;28;20469;-84
2024/01/04 11:48:10;;;;;;;2.83;1.02;;;;;;;;;;5119401;28;20408;-84
2024/01/04 11:50:36;;;;;;;2.63;1.00;;;;;;;;;;5119539;28;20395;-83
2024/01/04 11:53:03;;;;;;;2.80;1.13;;;;;;;;;;5109133;28;20378;-82
2024/01/04 11:55:30;;;;;;;3.20;1.10;;;;;;;;;;5095094;28;20383;-83
2024/01/04 11:58:05;;;;;;;2.60;0.80;;;;;;;;;;5118799;28;20731;-82
2024/01/04 12:00:35;;;;;;;2.60;0.77;;;;;;;;;;5118970;28;20929;-84
2024/01/04 12:03:22;;;;;;;3.50;0.85;;;;;;;;;;5118068;28;20383;-84
2024/01/04 12:05:56;;;;;;;3.80;1.08;;;;;;;;;;5118692;28;20400;-83
2024/01/04 12:08:25;;;;;;;2.45;0.93;;;;;;;;;;5120208;28;20371;-84
2024/01/04 12:10:52;;;;;;;2.70;1.00;;;;;;;;;;5099991;28;20824;-83
2024/01/04 12:13:18;;;;;;;1.92;0.68;;;;;;;;;;5116519;28;20383;-83
2024/01/04 12:15:44;;;;;;;3.42;0.90;;;;;;;;;;5116359;28;20404;-83
2024/01/04 12:18:11;;;;;;;2.17;0.73;;;;;;;;;;5098734;28;20408;-83
2024/01/04 12:20:37;;;;;;;2.33;0.80;;;;;;;;;;5116033;28;20774;-83
2024/01/04 12:23:06;;;;;;;2.80;0.77;;;;;;;;;;5097653;28;20459;-82
2024/01/04 12:25:32;;;;;;;1.92;0.70;;;;;;;;;;5116304;28;20373;-83
2024/01/04 12:27:58;;;;;;;2.95;0.80;;;;;;;;;;5115942;28;20470;-82
2024/01/04 12:30:25;;;;;;;1.63;0.52;;;;;;;;;;5115850;28;20377;-84
2024/01/04 12:32:51;;;;;;;1.33;0.43;;;;;;;;;;5086394;28;20386;-83
2024/01/04 12:35:17;;;;;;;1.55;0.45;;;;;;;;;;5079719;28;20741;-83
2024/01/04 12:37:44;;;;;;;2.00;0.80;;;;;;;;;;5098429;28;20398;-83
2024/01/04 12:40:12;;;;;;;2.10;0.70;;;;;;;;;;5100817;27;20392;-82
2024/01/04 12:42:38;;;;;;;5.15;0.80;;;;;;;;;;5117604;28;20381;-83
2024/01/04 12:45:08;;;;;;;3.25;0.88;;;;;;;;;;5111243;27;20371;-83
2024/01/04 12:47:35;;;;;;;2.35;0.70;;;;;;;;;;5098218;28;20396;-83
2024/01/04 12:50:01;;;;;;;3.30;0.90;;;;;;;;;;5086196;28;20786;-83
2024/01/04 12:52:27;;;;;;;3.65;1.20;;;;;;;;;;5090738;28;20373;-83
2024/01/04 12:54:53;;;;;;;3.92;1.02;;;;;;;;;;5102648;28;20412;-83
2024/01/04 12:57:19;;;;;;;3.70;1.50;;;;;;;;;;5096900;28;20378;-84
2024/01/04 12:59:48;;;;;;;3.17;1.60;;;;;;;;;;5100887;28;20392;-84
2024/01/04 13:02:14;;;;;;;3.92;1.08;;;;;;;;;;5106306;28;20385;-83
2024/01/04 13:04:40;;;;;;;5.38;1.20;;;;;;;;;;5089474;28;20386;-83
2024/01/04 13:07:06;;;;;;;3.53;1.17;;;;;;;;;;5090926;28;20394;-84
2024/01/04 13:09:34;;;;;;;3.53;0.98;;;;;;;;;;5101291;28;20406;-84
2024/01/04 13:12:00;;;;;;;4.53;1.25;;;;;;;;;;5104421;28;20484;-84
2024/01/04 13:14:26;;;;;;;3.15;0.80;;;;;;;;;;5100608;28;20378;-83
2024/01/04 13:16:53;;;;;;;3.83;0.98;;;;;;;;;;5087401;28;20382;-84
2024/01/04 13:19:19;;;;;;;4.25;1.05;;;;;;;;;;5106852;28;20430;-85
2024/01/04 13:21:45;;;;;;;3.65;0.93;;;;;;;;;;5113680;28;20398;-84
2024/01/04 13:24:11;;;;;;;4.97;1.23;;;;;;;;;;5103193;28;20390;-84
2024/01/04 13:26:39;;;;;;;3.53;1.17;;;;;;;;;;5102983;28;20405;-83
2024/01/04 13:29:06;;;;;;;3.40;0.90;;;;;;;;;;5104172;28;20848;-84
2024/01/04 13:31:32;;;;;;;4.38;1.23;;;;;;;;;;5108512;28;20380;-84
2024/01/04 13:33:58;;;;;;;5.43;1.35;;;;;;;;;;5120821;28;20864;-83
2024/01/04 13:36:25;;;;;;;4.45;1.10;;;;;;;;;;5093330;28;20381;-84
2024/01/04 13:38:51;;;;;;;2.47;0.82;;;;;;;;;;5110902;28;20386;-84
2024/01/04 13:41:18;;;;;;;3.20;0.90;;;;;;;;;;5100393;28;20374;-84
2024/01/04 13:43:44;;;;;;;2.58;0.90;;;;;;;;;;5102529;28;20370;-83
2024/01/04 13:46:10;;;;;;;3.90;1.08;;;;;;;;;;5101306;28;20859;-84
2024/01/04 13:48:36;;;;;;;3.72;1.45;;;;;;;;;;5104534;28;20428;-84
2024/01/04 13:51:03;;;;;;;3.42;1.15;;;;;;;;;;5102374;28;20402;-83
2024/01/04 13:53:30;;;;;;;4.63;1.00;;;;;;;;;;5091983;28;20874;-84
2024/01/04 13:55:57;;;;;;;5.75;1.30;;;;;;;;;;5119132;28;20475;-84
2024/01/04 13:58:23;;;;;;;4.20;1.20;;;;;;;;;;5122128;28;20426;-84
2024/01/04 14:00:49;;;;;;;4.28;1.20;;;;;;;;;;5122234;28;20471;-84
2024/01/04 14:03:15;;;;;;;3.97;1.00;;;;;;;;;;5123791;28;20376;-84
2024/01/04 14:05:41;;;;;;;3.97;1.30;;;;;;;;;;5123195;28;20394;-84
2024/01/04 14:08:07;;;;;;;2.72;1.10;;;;;;;;;;5122495;28;20376;-84
2024/01/04 14:10:33;;;;;;;3.95;1.00;;;;;;;;;;5124380;28;20380;-83
2024/01/04 14:12:59;;;;;;;3.25;0.85;;;;;;;;;;5104270;28;20707;-82
2024/01/04 14:15:25;;;;;;;3.40;0.90;;;;;;;;;;5114523;28;20376;-81
2024/01/04 14:17:52;;;;;;;4.07;0.88;;;;;;;;;;5116981;28;20450;-82
2024/01/04 14:20:20;;;;;;;2.60;0.82;;;;;;;;;;5116765;28;20388;-82
2024/01/04 14:22:46;;;;;;;3.50;0.85;;;;;;;;;;5111383;28;20409;-81
2024/01/04 14:25:12;;;;;;;2.97;1.02;;;;;;;;;;5115589;28;20387;-82
2024/01/04 14:27:39;;;;;;;2.72;1.00;;;;;;;;;;5115832;28;20423;-81
2024/01/04 14:30:05;;;;;;;2.90;0.70;;;;;;;;;;5112393;28;20368;-82
2024/01/04 14:32:31;;;;;;;4.00;0.97;;;;;;;;;;5116074;28;20377;-81
2024/01/04 14:35:00;;;;;;;5.88;1.00;;;;;;;;;;5107666;28;20774;-82
2024/01/04 14:37:26;;;;;;;3.40;1.00;;;;;;;;;;5115523;28;20380;-82
2024/01/04 14:39:52;;;;;;;4.13;1.02;;;;;;;;;;5115261;28;20395;-82